sensor_id;sensor_type;location;lat;lon;timestamp;pressure;altitude;pressure_sealevel;temperature;humidity
72428;BME280;60419;48.880;18.036;2022-10-31T00:00:36;99650.59;;;13.05;75.32
72428;BME280;60419;48.880;18.036;2022-10-31T00:03:22;99647.38;;;12.67;77.17
72428;BME280;60419;48.880;18.036;2022-10-31T00:06:07;99651.22;;;11.64;80.88
72428;BME280;60419;48.880;18.036;2022-10-31T00:08:56;99652.06;;;10.94;84.72
72428;BME280;60419;48.880;18.036;2022-10-31T00:11:42;99644.72;;;11.32;83.42
72428;BME280;60419;48.880;18.036;2022-10-31T00:14:27;99638.72;;;11.02;84.85
72428;BME280;60419;48.880;18.036;2022-10-31T00:17:12;99644.09;;;11.21;84.06
72428;BME280;60419;48.880;18.036;2022-10-31T00:19:58;99639.03;;;11.15;83.67
72428;BME280;60419;48.880;18.036;2022-10-31T00:22:43;99649.72;;;11.58;82.60
72428;BME280;60419;48.880;18.036;2022-10-31T00:25:33;99640.53;;;11.86;81.34
72428;BME280;60419;48.880;18.036;2022-10-31T00:28:19;99640.44;;;12.05;80.60
72428;BME280;60419;48.880;18.036;2022-10-31T00:31:07;99643.38;;;12.37;79.35
72428;BME280;60419;48.880;18.036;2022-10-31T00:33:53;99645.59;;;12.48;79.16
72428;BME280;60419;48.880;18.036;2022-10-31T00:36:38;99645.06;;;12.74;78.38
72428;BME280;60419;48.880;18.036;2022-10-31T00:39:23;99644.78;;;12.84;77.78
72428;BME280;60419;48.880;18.036;2022-10-31T00:42:09;99647.78;;;12.96;76.82
72428;BME280;60419;48.880;18.036;2022-10-31T00:44:54;99643.59;;;12.40;77.92
72428;BME280;60419;48.880;18.036;2022-10-31T00:47:39;99649.47;;;12.01;79.86
72428;BME280;60419;48.880;18.036;2022-10-31T00:50:25;99643.81;;;12.30;79.16
72428;BME280;60419;48.880;18.036;2022-10-31T00:53:10;99644.00;;;12.33;78.46
72428;BME280;60419;48.880;18.036;2022-10-31T00:55:56;99633.16;;;12.33;78.53
72428;BME280;60419;48.880;18.036;2022-10-31T00:58:41;99644.25;;;12.18;78.72
72428;BME280;60419;48.880;18.036;2022-10-31T01:01:26;99651.00;;;11.93;79.71
72428;BME280;60419;48.880;18.036;2022-10-31T01:04:12;99645.06;;;11.91;79.66
72428;BME280;60419;48.880;18.036;2022-10-31T01:06:57;99652.69;;;12.03;79.65
72428;BME280;60419;48.880;18.036;2022-10-31T01:09:42;99645.75;;;11.83;79.77
72428;BME280;60419;48.880;18.036;2022-10-31T01:12:28;99647.06;;;11.85;79.61
72428;BME280;60419;48.880;18.036;2022-10-31T01:15:16;99646.28;;;11.99;80.25
72428;BME280;60419;48.880;18.036;2022-10-31T01:18:02;99632.66;;;12.04;79.47
72428;BME280;60419;48.880;18.036;2022-10-31T01:20:49;99640.59;;;12.28;78.70
72428;BME280;60419;48.880;18.036;2022-10-31T01:23:41;99643.44;;;11.90;79.69
72428;BME280;60419;48.880;18.036;2022-10-31T01:26:29;99633.22;;;12.01;79.23
72428;BME280;60419;48.880;18.036;2022-10-31T01:29:15;99642.13;;;11.87;79.39
72428;BME280;60419;48.880;18.036;2022-10-31T01:32:01;99638.94;;;12.13;79.09
72428;BME280;60419;48.880;18.036;2022-10-31T01:34:46;99636.25;;;12.13;78.51
72428;BME280;60419;48.880;18.036;2022-10-31T01:37:31;99634.66;;;12.12;78.41
72428;BME280;60419;48.880;18.036;2022-10-31T01:40:17;99630.13;;;12.21;78.12
72428;BME280;60419;48.880;18.036;2022-10-31T01:43:02;99635.34;;;12.18;77.97
72428;BME280;60419;48.880;18.036;2022-10-31T01:45:51;99638.03;;;11.90;78.51
72428;BME280;60419;48.880;18.036;2022-10-31T01:48:39;99642.03;;;11.65;79.70
72428;BME280;60419;48.880;18.036;2022-10-31T01:51:29;99639.06;;;11.47;80.57
72428;BME280;60419;48.880;18.036;2022-10-31T01:54:18;99634.09;;;11.68;80.18
72428;BME280;60419;48.880;18.036;2022-10-31T01:57:06;99637.03;;;11.86;79.39
72428;BME280;60419;48.880;18.036;2022-10-31T01:59:57;99569.84;;;11.60;78.49
72428;BME280;60419;48.880;18.036;2022-10-31T02:02:45;99640.09;;;11.52;80.28
72428;BME280;60419;48.880;18.036;2022-10-31T02:05:32;99634.78;;;11.46;81.02
72428;BME280;60419;48.880;18.036;2022-10-31T02:11:07;99636.28;;;11.01;82.79
72428;BME280;60419;48.880;18.036;2022-10-31T02:13:53;99623.84;;;11.52;80.95
72428;BME280;60419;48.880;18.036;2022-10-31T02:16:39;99636.19;;;11.58;80.53
72428;BME280;60419;48.880;18.036;2022-10-31T02:22:28;99621.00;;;12.17;78.25
72428;BME280;60419;48.880;18.036;2022-10-31T02:34:56;99628.81;;;9.88;86.53
72428;BME280;60419;48.880;18.036;2022-10-31T02:37:52;99624.44;;;9.39;89.39
72428;BME280;60419;48.880;18.036;2022-10-31T02:43:59;99627.50;;;10.09;88.32
72428;BME280;60419;48.880;18.036;2022-10-31T02:49:54;99634.84;;;10.47;85.21
72428;BME280;60419;48.880;18.036;2022-10-31T02:52:42;99632.88;;;9.85;87.20
72428;BME280;60419;48.880;18.036;2022-10-31T02:58:15;99644.53;;;10.05;87.96
72428;BME280;60419;48.880;18.036;2022-10-31T03:04:17;99639.25;;;10.43;85.44
72428;BME280;60419;48.880;18.036;2022-10-31T03:10:04;99647.13;;;9.91;88.72
72428;BME280;60419;48.880;18.036;2022-10-31T03:13:12;99645.44;;;10.43;85.97
72428;BME280;60419;48.880;18.036;2022-10-31T03:16:14;99641.50;;;10.35;84.85
72428;BME280;60419;48.880;18.036;2022-10-31T03:19:06;99653.06;;;9.24;89.40
72428;BME280;60419;48.880;18.036;2022-10-31T03:22:00;99654.03;;;9.44;89.74
72428;BME280;60419;48.880;18.036;2022-10-31T03:24:48;99654.56;;;9.46;88.71
72428;BME280;60419;48.880;18.036;2022-10-31T03:27:37;99660.69;;;9.17;90.06
72428;BME280;60419;48.880;18.036;2022-10-31T03:30:24;99642.22;;;9.69;88.09
72428;BME280;60419;48.880;18.036;2022-10-31T03:33:13;99657.41;;;9.60;88.23
72428;BME280;60419;48.880;18.036;2022-10-31T03:36:02;99661.16;;;9.93;86.90
72428;BME280;60419;48.880;18.036;2022-10-31T03:38:50;99660.09;;;10.13;85.39
72428;BME280;60419;48.880;18.036;2022-10-31T03:41:41;99656.09;;;10.34;84.58
72428;BME280;60419;48.880;18.036;2022-10-31T03:44:29;99645.78;;;10.60;82.88
72428;BME280;60419;48.880;18.036;2022-10-31T03:47:16;99646.22;;;10.01;83.36
72428;BME280;60419;48.880;18.036;2022-10-31T03:50:01;99661.41;;;9.91;84.75
72428;BME280;60419;48.880;18.036;2022-10-31T03:53:09;99664.38;;;9.26;88.54
72428;BME280;60419;48.880;18.036;2022-10-31T03:56:09;99660.22;;;9.10;88.98
72428;BME280;60419;48.880;18.036;2022-10-31T03:59:04;99660.53;;;8.98;89.91
72428;BME280;60419;48.880;18.036;2022-10-31T04:01:57;99644.94;;;9.35;88.52
72428;BME280;60419;48.880;18.036;2022-10-31T04:04:44;99651.63;;;9.42;87.29
72428;BME280;60419;48.880;18.036;2022-10-31T04:07:34;99629.16;;;9.52;86.78
72428;BME280;60419;48.880;18.036;2022-10-31T04:10:22;99625.19;;;9.44;86.96
72428;BME280;60419;48.880;18.036;2022-10-31T04:13:14;99653.09;;;8.85;90.46
72428;BME280;60419;48.880;18.036;2022-10-31T04:16:03;99654.00;;;8.70;91.14
72428;BME280;60419;48.880;18.036;2022-10-31T04:18:48;99659.72;;;9.03;91.05
72428;BME280;60419;48.880;18.036;2022-10-31T04:21:34;99658.81;;;9.81;87.51
72428;BME280;60419;48.880;18.036;2022-10-31T04:24:19;99648.91;;;9.42;87.13
72428;BME280;60419;48.880;18.036;2022-10-31T04:27:05;99649.13;;;10.04;92.23
72428;BME280;60419;48.880;18.036;2022-10-31T04:29:50;99644.88;;;9.05;89.86
72428;BME280;60419;48.880;18.036;2022-10-31T04:32:35;99646.69;;;9.15;nan
72428;BME280;60419;48.880;18.036;2022-10-31T04:35:21;99638.06;;;9.13;88.92
72428;BME280;60419;48.880;18.036;2022-10-31T04:38:06;99643.09;;;9.64;86.80
72428;BME280;60419;48.880;18.036;2022-10-31T04:40:51;99644.88;;;9.74;85.59
72428;BME280;60419;48.880;18.036;2022-10-31T04:43:37;99645.47;;;9.95;85.10
72428;BME280;60419;48.880;18.036;2022-10-31T04:46:23;99649.13;;;10.04;84.72
72428;BME280;60419;48.880;18.036;2022-10-31T04:49:08;99634.81;;;9.50;85.45
72428;BME280;60419;48.880;18.036;2022-10-31T04:51:53;99652.09;;;8.71;89.31
72428;BME280;60419;48.880;18.036;2022-10-31T04:54:39;99657.38;;;8.91;89.14
72428;BME280;60419;48.880;18.036;2022-10-31T04:57:24;99646.47;;;9.12;88.06
72428;BME280;60419;48.880;18.036;2022-10-31T05:00:12;99653.69;;;9.50;86.47
72428;BME280;60419;48.880;18.036;2022-10-31T05:02:58;99661.81;;;9.80;85.04
72428;BME280;60419;48.880;18.036;2022-10-31T05:05:43;99660.78;;;9.76;84.45
72428;BME280;60419;48.880;18.036;2022-10-31T05:08:28;99660.69;;;9.57;85.13
72428;BME280;60419;48.880;18.036;2022-10-31T05:11:14;99659.22;;;9.40;85.93
72428;BME280;60419;48.880;18.036;2022-10-31T05:13:59;99664.53;;;9.80;84.66
72428;BME280;60419;48.880;18.036;2022-10-31T05:16:44;99647.06;;;9.96;83.53
72428;BME280;60419;48.880;18.036;2022-10-31T05:19:30;99666.91;;;10.34;82.16
72428;BME280;60419;48.880;18.036;2022-10-31T05:22:15;99664.88;;;10.45;81.64
72428;BME280;60419;48.880;18.036;2022-10-31T05:25:00;99658.13;;;10.24;81.07
72428;BME280;60419;48.880;18.036;2022-10-31T05:27:47;99660.13;;;10.56;80.59
72428;BME280;60419;48.880;18.036;2022-10-31T05:30:33;99658.53;;;10.55;79.98
72428;BME280;60419;48.880;18.036;2022-10-31T05:33:19;99660.34;;;10.59;79.71
72428;BME280;60419;48.880;18.036;2022-10-31T05:36:04;99660.66;;;10.77;79.49
72428;BME280;60419;48.880;18.036;2022-10-31T05:38:50;99666.06;;;10.77;79.10
72428;BME280;60419;48.880;18.036;2022-10-31T05:41:35;99670.81;;;10.85;78.27
72428;BME280;60419;48.880;18.036;2022-10-31T05:44:20;99680.00;;;11.08;81.29
72428;BME280;60419;48.880;18.036;2022-10-31T05:47:06;99684.78;;;10.49;80.31
72428;BME280;60419;48.880;18.036;2022-10-31T05:49:51;99689.34;;;10.54;80.66
72428;BME280;60419;48.880;18.036;2022-10-31T05:52:37;99687.59;;;10.87;78.98
72428;BME280;60419;48.880;18.036;2022-10-31T05:55:22;99680.22;;;10.93;78.79
72428;BME280;60419;48.880;18.036;2022-10-31T05:58:08;99693.06;;;11.01;81.79
72428;BME280;60419;48.880;18.036;2022-10-31T06:00:53;99697.72;;;11.14;79.52
72428;BME280;60419;48.880;18.036;2022-10-31T06:03:38;99700.66;;;11.18;79.09
72428;BME280;60419;48.880;18.036;2022-10-31T06:06:24;99698.53;;;11.34;77.63
72428;BME280;60419;48.880;18.036;2022-10-31T06:09:09;99710.06;;;11.39;78.20
72428;BME280;60419;48.880;18.036;2022-10-31T06:11:54;99709.72;;;11.27;77.83
72428;BME280;60419;48.880;18.036;2022-10-31T06:14:40;99706.25;;;11.40;76.97
72428;BME280;60419;48.880;18.036;2022-10-31T06:17:25;99714.66;;;11.58;76.41
72428;BME280;60419;48.880;18.036;2022-10-31T06:20:11;99711.38;;;11.75;77.69
72428;BME280;60419;48.880;18.036;2022-10-31T06:22:56;99699.47;;;11.43;77.07
72428;BME280;60419;48.880;18.036;2022-10-31T06:25:41;99717.09;;;11.73;76.78
72428;BME280;60419;48.880;18.036;2022-10-31T06:28:27;99713.88;;;11.19;77.81
72428;BME280;60419;48.880;18.036;2022-10-31T06:31:12;99718.50;;;11.19;78.46
72428;BME280;60419;48.880;18.036;2022-10-31T06:33:58;99722.44;;;11.26;77.21
72428;BME280;60419;48.880;18.036;2022-10-31T06:36:43;99724.75;;;11.52;80.12
72428;BME280;60419;48.880;18.036;2022-10-31T06:39:30;99724.31;;;10.64;78.50
72428;BME280;60419;48.880;18.036;2022-10-31T06:42:16;99718.41;;;10.14;80.03
72428;BME280;60419;48.880;18.036;2022-10-31T06:45:01;99721.53;;;10.50;79.28
72428;BME280;60419;48.880;18.036;2022-10-31T06:47:53;99734.09;;;10.36;79.12
72428;BME280;60419;48.880;18.036;2022-10-31T06:50:39;99724.81;;;10.47;79.30
72428;BME280;60419;48.880;18.036;2022-10-31T06:53:24;99728.41;;;10.61;79.06
72428;BME280;60419;48.880;18.036;2022-10-31T06:56:09;99738.00;;;10.25;80.05
72428;BME280;60419;48.880;18.036;2022-10-31T06:58:55;99731.41;;;9.48;83.47
72428;BME280;60419;48.880;18.036;2022-10-31T07:01:40;99739.09;;;9.94;82.05
72428;BME280;60419;48.880;18.036;2022-10-31T07:04:26;99737.22;;;10.24;81.39
72428;BME280;60419;48.880;18.036;2022-10-31T07:07:11;99740.66;;;10.30;80.37
72428;BME280;60419;48.880;18.036;2022-10-31T07:09:56;99738.81;;;10.25;80.41
72428;BME280;60419;48.880;18.036;2022-10-31T07:12:42;99734.13;;;10.07;81.35
72428;BME280;60419;48.880;18.036;2022-10-31T07:15:28;99733.00;;;9.84;81.58
72428;BME280;60419;48.880;18.036;2022-10-31T07:18:14;99731.97;;;9.80;82.21
72428;BME280;60419;48.880;18.036;2022-10-31T07:20:59;99741.97;;;8.90;85.47
72428;BME280;60419;48.880;18.036;2022-10-31T07:23:47;99736.00;;;8.98;85.70
72428;BME280;60419;48.880;18.036;2022-10-31T07:26:33;99738.91;;;9.12;85.01
72428;BME280;60419;48.880;18.036;2022-10-31T07:29:18;99746.78;;;8.28;88.64
72428;BME280;60419;48.880;18.036;2022-10-31T07:32:04;99734.09;;;9.04;86.26
72428;BME280;60419;48.880;18.036;2022-10-31T07:34:49;99741.19;;;8.84;86.27
72428;BME280;60419;48.880;18.036;2022-10-31T07:37:35;99676.53;;;8.25;87.31
72428;BME280;60419;48.880;18.036;2022-10-31T07:40:21;99728.84;;;8.78;86.96
72428;BME280;60419;48.880;18.036;2022-10-31T07:43:07;99735.09;;;9.13;85.68
72428;BME280;60419;48.880;18.036;2022-10-31T07:45:53;99740.06;;;9.45;84.77
72428;BME280;60419;48.880;18.036;2022-10-31T07:48:38;99739.78;;;9.47;83.81
72428;BME280;60419;48.880;18.036;2022-10-31T07:51:23;99741.03;;;9.89;82.83
72428;BME280;60419;48.880;18.036;2022-10-31T07:54:09;99747.31;;;10.13;82.25
72428;BME280;60419;48.880;18.036;2022-10-31T07:56:54;99747.22;;;9.16;84.30
72428;BME280;60419;48.880;18.036;2022-10-31T07:59:39;99740.38;;;8.84;87.04
72428;BME280;60419;48.880;18.036;2022-10-31T08:02:25;99746.34;;;9.70;84.33
72428;BME280;60419;48.880;18.036;2022-10-31T08:05:11;99740.81;;;10.14;82.44
72428;BME280;60419;48.880;18.036;2022-10-31T08:07:56;99746.28;;;10.33;80.88
72428;BME280;60419;48.880;18.036;2022-10-31T08:10:42;99729.41;;;9.93;80.73
72428;BME280;60419;48.880;18.036;2022-10-31T08:13:28;99687.34;;;8.09;86.63
72428;BME280;60419;48.880;18.036;2022-10-31T08:16:13;99748.63;;;8.38;88.68
72428;BME280;60419;48.880;18.036;2022-10-31T08:18:59;99749.69;;;8.47;89.05
72428;BME280;60419;48.880;18.036;2022-10-31T08:21:44;99752.19;;;8.23;89.61
72428;BME280;60419;48.880;18.036;2022-10-31T08:24:29;99748.31;;;9.15;87.55
72428;BME280;60419;48.880;18.036;2022-10-31T08:27:15;99745.16;;;9.47;85.09
72428;BME280;60419;48.880;18.036;2022-10-31T08:30:00;99747.53;;;9.88;83.43
72428;BME280;60419;48.880;18.036;2022-10-31T08:32:45;99750.84;;;9.80;82.54
72428;BME280;60419;48.880;18.036;2022-10-31T08:35:32;99746.09;;;10.01;82.16
72428;BME280;60419;48.880;18.036;2022-10-31T08:38:18;99744.28;;;10.44;81.04
72428;BME280;60419;48.880;18.036;2022-10-31T08:41:03;99748.34;;;10.42;80.42
72428;BME280;60419;48.880;18.036;2022-10-31T08:43:48;99745.31;;;9.95;81.93
72428;BME280;60419;48.880;18.036;2022-10-31T08:46:34;99735.41;;;8.57;86.54
72428;BME280;60419;48.880;18.036;2022-10-31T08:49:20;99738.91;;;8.47;88.57
72428;BME280;60419;48.880;18.036;2022-10-31T08:52:06;99737.44;;;9.35;85.85
72428;BME280;60419;48.880;18.036;2022-10-31T08:54:51;99745.22;;;9.37;85.26
72428;BME280;60419;48.880;18.036;2022-10-31T08:57:37;99740.56;;;9.47;84.86
72428;BME280;60419;48.880;18.036;2022-10-31T09:00:22;99711.31;;;9.65;83.54
72428;BME280;60419;48.880;18.036;2022-10-31T09:03:12;99740.63;;;10.06;82.23
72428;BME280;60419;48.880;18.036;2022-10-31T09:06:00;99732.47;;;9.47;83.42
72428;BME280;60419;48.880;18.036;2022-10-31T09:08:46;99743.63;;;10.28;81.92
72428;BME280;60419;48.880;18.036;2022-10-31T09:11:32;99737.72;;;10.74;79.61
72428;BME280;60419;48.880;18.036;2022-10-31T09:14:17;99730.63;;;11.21;78.36
72428;BME280;60419;48.880;18.036;2022-10-31T09:17:02;99734.19;;;11.17;77.53
72428;BME280;60419;48.880;18.036;2022-10-31T09:19:47;99733.25;;;11.08;78.12
72428;BME280;60419;48.880;18.036;2022-10-31T09:22:33;99731.50;;;11.17;78.42
72428;BME280;60419;48.880;18.036;2022-10-31T09:25:18;99740.50;;;10.45;81.12
72428;BME280;60419;48.880;18.036;2022-10-31T09:28:05;99732.00;;;11.00;78.60
72428;BME280;60419;48.880;18.036;2022-10-31T09:30:52;99737.34;;;11.24;77.74
72428;BME280;60419;48.880;18.036;2022-10-31T09:33:38;99733.84;;;10.80;79.40
72428;BME280;60419;48.880;18.036;2022-10-31T09:36:23;99735.72;;;10.61;79.79
72428;BME280;60419;48.880;18.036;2022-10-31T09:39:09;99736.78;;;10.60;80.59
72428;BME280;60419;48.880;18.036;2022-10-31T09:42:05;99742.91;;;10.71;80.75
72428;BME280;60419;48.880;18.036;2022-10-31T09:45:14;99736.91;;;11.17;78.47
72428;BME280;60419;48.880;18.036;2022-10-31T09:50:50;99732.19;;;11.60;77.15
72428;BME280;60419;48.880;18.036;2022-10-31T09:53:51;99734.44;;;11.72;75.91
72428;BME280;60419;48.880;18.036;2022-10-31T09:56:37;99735.16;;;11.07;77.99
72428;BME280;60419;48.880;18.036;2022-10-31T09:59:34;99723.09;;;10.75;79.08
72428;BME280;60419;48.880;18.036;2022-10-31T10:02:30;99736.06;;;10.54;80.06
72428;BME280;60419;48.880;18.036;2022-10-31T10:05:25;99742.38;;;10.93;78.91
72428;BME280;60419;48.880;18.036;2022-10-31T10:08:18;99735.72;;;10.61;80.12
72428;BME280;60419;48.880;18.036;2022-10-31T10:25:46;99746.78;;;10.11;82.88
72428;BME280;60419;48.880;18.036;2022-10-31T10:28:37;99747.44;;;9.98;82.95
72428;BME280;60419;48.880;18.036;2022-10-31T10:31:27;99740.97;;;10.23;82.27
72428;BME280;60419;48.880;18.036;2022-10-31T10:34:24;99751.03;;;10.17;82.48
72428;BME280;60419;48.880;18.036;2022-10-31T10:40:20;99741.13;;;10.37;82.65
72428;BME280;60419;48.880;18.036;2022-10-31T10:46:51;99729.28;;;10.57;81.95
72428;BME280;60419;48.880;18.036;2022-10-31T10:49:57;99728.41;;;10.61;81.74
72428;BME280;60419;48.880;18.036;2022-10-31T10:58:59;99720.31;;;9.84;85.83
72428;BME280;60419;48.880;18.036;2022-10-31T11:01:45;99722.50;;;10.11;85.19
72428;BME280;60419;48.880;18.036;2022-10-31T11:04:35;99717.78;;;10.22;84.71
72428;BME280;60419;48.880;18.036;2022-10-31T11:07:21;99708.53;;;10.28;83.93
72428;BME280;60419;48.880;18.036;2022-10-31T11:10:12;99704.59;;;10.88;83.42
72428;BME280;60419;48.880;18.036;2022-10-31T11:18:40;99704.91;;;10.38;84.33
72428;BME280;60419;48.880;18.036;2022-10-31T11:21:29;99702.91;;;10.49;83.31
72428;BME280;60419;48.880;18.036;2022-10-31T11:27:13;99711.44;;;10.37;84.11
72428;BME280;60419;48.880;18.036;2022-10-31T11:30:06;99699.00;;;10.36;84.59
72428;BME280;60419;48.880;18.036;2022-10-31T11:32:52;99705.50;;;10.35;84.79
72428;BME280;60419;48.880;18.036;2022-10-31T11:35:39;99699.25;;;10.39;84.94
72428;BME280;60419;48.880;18.036;2022-10-31T11:38:32;99702.31;;;10.52;84.56
72428;BME280;60419;48.880;18.036;2022-10-31T11:41:24;99678.69;;;10.63;83.56
72428;BME280;60419;48.880;18.036;2022-10-31T11:44:12;99697.28;;;10.45;83.91
72428;BME280;60419;48.880;18.036;2022-10-31T11:47:03;99696.53;;;10.39;84.00
72428;BME280;60419;48.880;18.036;2022-10-31T11:49:50;99687.53;;;10.68;83.88
72428;BME280;60419;48.880;18.036;2022-10-31T11:52:37;99690.75;;;10.70;83.15
72428;BME280;60419;48.880;18.036;2022-10-31T11:55:34;99688.81;;;10.76;83.08
72428;BME280;60419;48.880;18.036;2022-10-31T11:58:23;99691.31;;;10.67;83.62
72428;BME280;60419;48.880;18.036;2022-10-31T12:01:24;99686.66;;;10.30;85.12
72428;BME280;60419;48.880;18.036;2022-10-31T12:04:11;99692.34;;;10.28;85.57
72428;BME280;60419;48.880;18.036;2022-10-31T12:06:58;99676.53;;;10.41;84.72
72428;BME280;60419;48.880;18.036;2022-10-31T12:09:43;99680.63;;;10.38;84.70
72428;BME280;60419;48.880;18.036;2022-10-31T12:12:54;99677.28;;;10.46;84.99
72428;BME280;60419;48.880;18.036;2022-10-31T12:15:55;99675.72;;;10.83;83.88
72428;BME280;60419;48.880;18.036;2022-10-31T12:19:06;99670.63;;;11.00;82.61
72428;BME280;60419;48.880;18.036;2022-10-31T12:22:02;99673.75;;;10.89;82.67
72428;BME280;60419;48.880;18.036;2022-10-31T12:25:00;99667.97;;;10.76;83.30
72428;BME280;60419;48.880;18.036;2022-10-31T12:40:37;99669.66;;;11.29;82.13
72428;BME280;60419;48.880;18.036;2022-10-31T12:43:46;99677.22;;;10.94;83.31
72428;BME280;60419;48.880;18.036;2022-10-31T12:55:53;99642.09;;;10.70;83.34
72428;BME280;60419;48.880;18.036;2022-10-31T12:59:02;99655.53;;;10.99;83.14
72428;BME280;60419;48.880;18.036;2022-10-31T13:02:00;99650.41;;;10.98;83.07
72428;BME280;60419;48.880;18.036;2022-10-31T13:07:54;99629.28;;;11.00;83.04
72428;BME280;60419;48.880;18.036;2022-10-31T13:11:05;99651.91;;;11.23;83.11
72428;BME280;60419;48.880;18.036;2022-10-31T13:14:29;99644.13;;;11.35;82.74
72428;BME280;60419;48.880;18.036;2022-10-31T13:17:06;99636.72;;;11.74;81.42
72428;BME280;60419;48.880;18.036;2022-10-31T13:20:05;99641.34;;;11.87;79.96
72428;BME280;60419;48.880;18.036;2022-10-31T13:23:18;99643.72;;;11.61;80.81
72428;BME280;60419;48.880;18.036;2022-10-31T13:26:10;99630.25;;;11.42;81.52
72428;BME280;60419;48.880;18.036;2022-10-31T13:32:04;99632.47;;;11.21;82.43
72428;BME280;60419;48.880;18.036;2022-10-31T13:34:53;99635.06;;;11.45;81.97
72428;BME280;60419;48.880;18.036;2022-10-31T13:37:46;99638.81;;;11.30;81.88
72428;BME280;60419;48.880;18.036;2022-10-31T13:40:51;99632.19;;;11.03;82.99
72428;BME280;60419;48.880;18.036;2022-10-31T13:44:00;99611.84;;;10.92;83.54
72428;BME280;60419;48.880;18.036;2022-10-31T13:46:47;99618.16;;;11.01;83.16
72428;BME280;60419;48.880;18.036;2022-10-31T13:52:24;99634.84;;;11.41;82.05
72428;BME280;60419;48.880;18.036;2022-10-31T13:55:35;99640.19;;;11.60;81.72
72428;BME280;60419;48.880;18.036;2022-10-31T14:04:16;99636.16;;;10.92;84.30
72428;BME280;60419;48.880;18.036;2022-10-31T14:07:10;99639.19;;;10.86;84.32
72428;BME280;60419;48.880;18.036;2022-10-31T14:10:03;99637.16;;;10.77;84.94
72428;BME280;60419;48.880;18.036;2022-10-31T14:12:50;99623.84;;;10.62;85.44
72428;BME280;60419;48.880;18.036;2022-10-31T14:15:37;99631.59;;;10.69;85.50
72428;BME280;60419;48.880;18.036;2022-10-31T14:18:31;99638.72;;;11.02;84.56
72428;BME280;60419;48.880;18.036;2022-10-31T14:24:31;99640.78;;;10.68;86.10
72428;BME280;60419;48.880;18.036;2022-10-31T14:30:17;99635.44;;;10.63;86.12
72428;BME280;60419;48.880;18.036;2022-10-31T14:33:16;99631.53;;;10.74;85.22
72428;BME280;60419;48.880;18.036;2022-10-31T14:36:21;99623.50;;;10.50;86.11
72428;BME280;60419;48.880;18.036;2022-10-31T14:39:32;99628.81;;;10.55;86.57
72428;BME280;60419;48.880;18.036;2022-10-31T14:45:37;99630.63;;;13.23;91.05
72428;BME280;60419;48.880;18.036;2022-10-31T14:51:18;99621.81;;;11.11;83.43
72428;BME280;60419;48.880;18.036;2022-10-31T14:54:05;99617.16;;;10.78;85.27
72428;BME280;60419;48.880;18.036;2022-10-31T14:57:05;99607.75;;;10.95;84.68
72428;BME280;60419;48.880;18.036;2022-10-31T14:59:56;99617.44;;;10.77;85.21
72428;BME280;60419;48.880;18.036;2022-10-31T15:03:09;99613.75;;;10.92;84.78
72428;BME280;60419;48.880;18.036;2022-10-31T15:06:00;99616.78;;;11.04;84.48
72428;BME280;60419;48.880;18.036;2022-10-31T15:08:52;99626.75;;;11.22;83.75
72428;BME280;60419;48.880;18.036;2022-10-31T15:11:38;99621.16;;;11.19;83.85
72428;BME280;60419;48.880;18.036;2022-10-31T15:14:27;99617.09;;;11.02;84.19
72428;BME280;60419;48.880;18.036;2022-10-31T15:17:12;99618.28;;;11.29;83.66
72428;BME280;60419;48.880;18.036;2022-10-31T15:19:58;99553.22;;;11.07;82.93
72428;BME280;60419;48.880;18.036;2022-10-31T15:22:43;99624.84;;;11.42;83.29
72428;BME280;60419;48.880;18.036;2022-10-31T15:25:33;99617.44;;;11.61;82.67
72428;BME280;60419;48.880;18.036;2022-10-31T15:28:22;99622.16;;;11.56;82.07
72428;BME280;60419;48.880;18.036;2022-10-31T15:31:16;99625.13;;;11.40;82.67
72428;BME280;60419;48.880;18.036;2022-10-31T15:34:11;99618.28;;;11.62;81.86
72428;BME280;60419;48.880;18.036;2022-10-31T15:37:00;99624.13;;;11.83;80.74
72428;BME280;60419;48.880;18.036;2022-10-31T15:39:47;99623.28;;;11.82;80.45
72428;BME280;60419;48.880;18.036;2022-10-31T15:42:40;99623.78;;;11.84;80.00
72428;BME280;60419;48.880;18.036;2022-10-31T15:45:28;99618.00;;;11.91;80.10
72428;BME280;60419;48.880;18.036;2022-10-31T15:48:25;99629.00;;;11.67;80.96
72428;BME280;60419;48.880;18.036;2022-10-31T15:51:11;99622.34;;;11.13;83.05
72428;BME280;60419;48.880;18.036;2022-10-31T15:53:57;99617.41;;;11.15;82.85
72428;BME280;60419;48.880;18.036;2022-10-31T15:56:45;99628.81;;;11.31;82.76
72428;BME280;60419;48.880;18.036;2022-10-31T15:59:31;99621.75;;;11.16;83.20
72428;BME280;60419;48.880;18.036;2022-10-31T16:02:20;99627.09;;;11.35;82.74
72428;BME280;60419;48.880;18.036;2022-10-31T16:05:19;99626.47;;;11.24;83.26
72428;BME280;60419;48.880;18.036;2022-10-31T16:16:55;99628.72;;;12.10;80.06
72428;BME280;60419;48.880;18.036;2022-10-31T16:19:50;99617.06;;;11.82;80.37
72428;BME280;60419;48.880;18.036;2022-10-31T16:22:38;99606.88;;;11.46;80.65
72428;BME280;60419;48.880;18.036;2022-10-31T16:25:42;99640.44;;;11.91;80.13
72428;BME280;60419;48.880;18.036;2022-10-31T16:28:28;99643.94;;;11.64;81.10
72428;BME280;60419;48.880;18.036;2022-10-31T16:31:14;99634.00;;;11.74;80.63
72428;BME280;60419;48.880;18.036;2022-10-31T16:34:18;99651.22;;;11.64;80.87
72428;BME280;60419;48.880;18.036;2022-10-31T16:37:04;99645.63;;;11.74;80.63
72428;BME280;60419;48.880;18.036;2022-10-31T16:39:50;99642.03;;;11.32;81.96
72428;BME280;60419;48.880;18.036;2022-10-31T16:42:35;99652.41;;;11.58;81.27
72428;BME280;60419;48.880;18.036;2022-10-31T16:45:23;99650.81;;;11.57;81.28
72428;BME280;60419;48.880;18.036;2022-10-31T16:48:14;99647.53;;;11.60;81.13
72428;BME280;60419;48.880;18.036;2022-10-31T16:51:00;99658.44;;;11.55;81.57
72428;BME280;60419;48.880;18.036;2022-10-31T16:53:46;99654.13;;;11.02;83.78